sensor_id;sensor_type;location;lat;lon;timestamp;P1;durP1;ratioP1;P2;durP2;ratioP2
5959;SDS011;3006;50.956;7.002;2022-12-18T00:00:04;18.30;;;10.30;;
5959;SDS011;3006;50.956;7.002;2022-12-18T00:02:39;13.43;;;8.87;;
5959;SDS011;3006;50.956;7.002;2022-12-18T00:05:07;15.90;;;9.80;;
5959;SDS011;3006;50.956;7.002;2022-12-18T00:07:35;18.40;;;10.73;;
5959;SDS011;3006;50.956;7.002;2022-12-18T00:10:04;18.23;;;10.10;;
5959;SDS011;3006;50.956;7.002;2022-12-18T00:12:33;17.47;;;10.33;;
5959;SDS011;3006;50.956;7.002;2022-12-18T00:15:03;14.10;;;9.03;;
5959;SDS011;3006;50.956;7.002;2022-12-18T00:17:31;13.77;;;8.43;;
5959;SDS011;3006;50.956;7.002;2022-12-18T00:19:59;16.27;;;9.77;;
5959;SDS011;3006;50.956;7.002;2022-12-18T00:22:27;17.43;;;9.90;;
5959;SDS011;3006;50.956;7.002;2022-12-18T00:24:55;17.50;;;11.00;;
5959;SDS011;3006;50.956;7.002;2022-12-18T00:27:23;16.30;;;10.00;;
5959;SDS011;3006;50.956;7.002;2022-12-18T00:29:51;15.97;;;9.80;;
5959;SDS011;3006;50.956;7.002;2022-12-18T00:32:20;16.40;;;9.60;;
5959;SDS011;3006;50.956;7.002;2022-12-18T00:34:48;16.30;;;9.53;;
5959;SDS011;3006;50.956;7.002;2022-12-18T00:37:16;17.63;;;10.83;;
5959;SDS011;3006;50.956;7.002;2022-12-18T00:39:49;14.73;;;8.90;;
5959;SDS011;3006;50.956;7.002;2022-12-18T00:42:18;18.33;;;10.07;;
5959;SDS011;3006;50.956;7.002;2022-12-18T00:45:04;16.50;;;10.10;;
5959;SDS011;3006;50.956;7.002;2022-12-18T00:47:39;14.90;;;9.97;;
5959;SDS011;3006;50.956;7.002;2022-12-18T00:50:08;17.27;;;9.90;;
5959;SDS011;3006;50.956;7.002;2022-12-18T00:52:36;19.73;;;10.57;;
5959;SDS011;3006;50.956;7.002;2022-12-18T00:55:05;15.83;;;9.50;;
5959;SDS011;3006;50.956;7.002;2022-12-18T00:57:33;14.90;;;10.33;;
5959;SDS011;3006;50.956;7.002;2022-12-18T01:00:03;14.37;;;10.10;;
5959;SDS011;3006;50.956;7.002;2022-12-18T01:02:33;21.60;;;10.50;;
5959;SDS011;3006;50.956;7.002;2022-12-18T01:05:04;15.27;;;10.30;;
5959;SDS011;3006;50.956;7.002;2022-12-18T01:07:32;15.50;;;10.00;;
5959;SDS011;3006;50.956;7.002;2022-12-18T01:10:02;16.33;;;10.30;;
5959;SDS011;3006;50.956;7.002;2022-12-18T01:12:30;16.87;;;9.93;;
5959;SDS011;3006;50.956;7.002;2022-12-18T01:14:59;14.50;;;9.20;;
5959;SDS011;3006;50.956;7.002;2022-12-18T01:17:27;16.10;;;10.10;;
5959;SDS011;3006;50.956;7.002;2022-12-18T01:19:55;16.00;;;10.10;;
5959;SDS011;3006;50.956;7.002;2022-12-18T01:22:24;17.13;;;9.50;;
5959;SDS011;3006;50.956;7.002;2022-12-18T01:24:52;18.30;;;11.20;;
5959;SDS011;3006;50.956;7.002;2022-12-18T01:27:21;16.27;;;9.47;;
5959;SDS011;3006;50.956;7.002;2022-12-18T01:29:50;18.53;;;10.43;;
5959;SDS011;3006;50.956;7.002;2022-12-18T01:32:18;17.10;;;10.90;;
5959;SDS011;3006;50.956;7.002;2022-12-18T01:34:46;14.37;;;9.33;;
5959;SDS011;3006;50.956;7.002;2022-12-18T01:37:14;18.13;;;10.03;;
5959;SDS011;3006;50.956;7.002;2022-12-18T01:39:44;14.67;;;10.03;;
5959;SDS011;3006;50.956;7.002;2022-12-18T01:42:13;15.90;;;9.80;;
5959;SDS011;3006;50.956;7.002;2022-12-18T01:44:55;14.40;;;9.53;;
5959;SDS011;3006;50.956;7.002;2022-12-18T01:47:27;15.63;;;10.07;;
5959;SDS011;3006;50.956;7.002;2022-12-18T01:49:59;15.87;;;9.93;;
5959;SDS011;3006;50.956;7.002;2022-12-18T01:52:31;19.43;;;8.87;;
5959;SDS011;3006;50.956;7.002;2022-12-18T01:55:03;14.97;;;9.90;;
5959;SDS011;3006;50.956;7.002;2022-12-18T01:57:33;14.20;;;9.53;;
5959;SDS011;3006;50.956;7.002;2022-12-18T02:00:03;15.83;;;9.23;;
5959;SDS011;3006;50.956;7.002;2022-12-18T02:02:40;13.87;;;8.07;;
5959;SDS011;3006;50.956;7.002;2022-12-18T02:05:09;15.93;;;9.07;;
5959;SDS011;3006;50.956;7.002;2022-12-18T02:07:42;13.63;;;8.93;;
5959;SDS011;3006;50.956;7.002;2022-12-18T02:10:20;13.97;;;8.90;;
5959;SDS011;3006;50.956;7.002;2022-12-18T02:12:56;14.47;;;9.53;;
5959;SDS011;3006;50.956;7.002;2022-12-18T02:15:32;15.13;;;8.70;;
5959;SDS011;3006;50.956;7.002;2022-12-18T02:18:07;15.83;;;9.00;;
5959;SDS011;3006;50.956;7.002;2022-12-18T02:20:40;16.00;;;8.90;;
5959;SDS011;3006;50.956;7.002;2022-12-18T02:23:16;14.63;;;8.80;;
5959;SDS011;3006;50.956;7.002;2022-12-18T02:26:04;13.00;;;8.70;;
5959;SDS011;3006;50.956;7.002;2022-12-18T02:28:42;19.33;;;9.70;;
5959;SDS011;3006;50.956;7.002;2022-12-18T02:31:14;14.70;;;8.63;;
5959;SDS011;3006;50.956;7.002;2022-12-18T02:33:45;15.03;;;9.40;;
5959;SDS011;3006;50.956;7.002;2022-12-18T02:36:15;16.70;;;10.20;;
5959;SDS011;3006;50.956;7.002;2022-12-18T02:38:46;15.10;;;9.07;;
5959;SDS011;3006;50.956;7.002;2022-12-18T02:41:16;17.23;;;9.37;;
5959;SDS011;3006;50.956;7.002;2022-12-18T02:43:47;14.83;;;9.53;;
5959;SDS011;3006;50.956;7.002;2022-12-18T02:49:06;12.63;;;7.97;;
5959;SDS011;3006;50.956;7.002;2022-12-18T02:51:44;12.40;;;8.93;;
5959;SDS011;3006;50.956;7.002;2022-12-18T02:54:20;15.43;;;8.53;;
5959;SDS011;3006;50.956;7.002;2022-12-18T02:57:00;12.93;;;7.93;;
5959;SDS011;3006;50.956;7.002;2022-12-18T02:59:37;13.30;;;8.60;;
5959;SDS011;3006;50.956;7.002;2022-12-18T03:02:10;16.10;;;9.20;;
5959;SDS011;3006;50.956;7.002;2022-12-18T03:04:46;13.43;;;9.30;;
5959;SDS011;3006;50.956;7.002;2022-12-18T03:07:21;14.20;;;8.77;;
5959;SDS011;3006;50.956;7.002;2022-12-18T03:09:56;15.07;;;7.80;;
5959;SDS011;3006;50.956;7.002;2022-12-18T03:12:30;14.33;;;9.50;;
5959;SDS011;3006;50.956;7.002;2022-12-18T03:15:00;12.10;;;7.33;;
5959;SDS011;3006;50.956;7.002;2022-12-18T03:17:32;13.37;;;8.87;;
5959;SDS011;3006;50.956;7.002;2022-12-18T03:20:03;13.13;;;8.90;;
5959;SDS011;3006;50.956;7.002;2022-12-18T03:22:35;15.20;;;8.10;;
5959;SDS011;3006;50.956;7.002;2022-12-18T03:25:06;10.53;;;7.33;;
5959;SDS011;3006;50.956;7.002;2022-12-18T03:27:40;14.83;;;8.37;;
5959;SDS011;3006;50.956;7.002;2022-12-18T03:30:14;13.90;;;8.00;;
5959;SDS011;3006;50.956;7.002;2022-12-18T03:32:46;14.33;;;8.53;;
5959;SDS011;3006;50.956;7.002;2022-12-18T03:35:24;10.47;;;7.20;;
5959;SDS011;3006;50.956;7.002;2022-12-18T03:37:57;14.30;;;8.70;;
5959;SDS011;3006;50.956;7.002;2022-12-18T03:40:26;14.47;;;8.80;;
5959;SDS011;3006;50.956;7.002;2022-12-18T03:43:03;15.17;;;8.10;;
5959;SDS011;3006;50.956;7.002;2022-12-18T03:45:37;11.13;;;7.93;;
5959;SDS011;3006;50.956;7.002;2022-12-18T03:48:13;12.80;;;8.60;;
5959;SDS011;3006;50.956;7.002;2022-12-18T03:50:48;12.87;;;8.20;;
5959;SDS011;3006;50.956;7.002;2022-12-18T03:53:25;12.57;;;8.70;;
5959;SDS011;3006;50.956;7.002;2022-12-18T03:56:02;12.53;;;7.40;;
5959;SDS011;3006;50.956;7.002;2022-12-18T03:58:38;13.70;;;8.30;;
5959;SDS011;3006;50.956;7.002;2022-12-18T04:01:17;14.47;;;8.30;;
5959;SDS011;3006;50.956;7.002;2022-12-18T04:03:47;14.37;;;8.60;;
5959;SDS011;3006;50.956;7.002;2022-12-18T04:06:18;15.90;;;8.97;;
5959;SDS011;3006;50.956;7.002;2022-12-18T04:08:47;13.60;;;8.20;;
5959;SDS011;3006;50.956;7.002;2022-12-18T04:11:19;15.07;;;8.47;;
5959;SDS011;3006;50.956;7.002;2022-12-18T04:13:49;10.63;;;7.70;;
5959;SDS011;3006;50.956;7.002;2022-12-18T04:16:21;22.60;;;8.83;;
5959;SDS011;3006;50.956;7.002;2022-12-18T04:18:53;12.80;;;9.00;;
5959;SDS011;3006;50.956;7.002;2022-12-18T04:21:23;14.70;;;8.60;;
5959;SDS011;3006;50.956;7.002;2022-12-18T04:23:52;13.20;;;8.50;;
5959;SDS011;3006;50.956;7.002;2022-12-18T04:26:21;15.80;;;9.53;;
5959;SDS011;3006;50.956;7.002;2022-12-18T04:29:14;13.83;;;7.93;;
5959;SDS011;3006;50.956;7.002;2022-12-18T04:31:42;13.67;;;8.50;;
5959;SDS011;3006;50.956;7.002;2022-12-18T04:34:10;17.27;;;9.73;;
5959;SDS011;3006;50.956;7.002;2022-12-18T04:36:46;14.53;;;8.80;;
5959;SDS011;3006;50.956;7.002;2022-12-18T04:39:14;16.17;;;9.30;;
5959;SDS011;3006;50.956;7.002;2022-12-18T04:41:43;13.77;;;8.40;;
5959;SDS011;3006;50.956;7.002;2022-12-18T04:44:13;13.70;;;8.30;;
5959;SDS011;3006;50.956;7.002;2022-12-18T04:46:42;15.60;;;9.07;;
5959;SDS011;3006;50.956;7.002;2022-12-18T04:49:10;14.97;;;9.17;;
5959;SDS011;3006;50.956;7.002;2022-12-18T04:51:39;13.93;;;9.23;;
5959;SDS011;3006;50.956;7.002;2022-12-18T04:54:07;16.60;;;10.57;;
5959;SDS011;3006;50.956;7.002;2022-12-18T04:56:35;17.20;;;8.60;;
5959;SDS011;3006;50.956;7.002;2022-12-18T04:59:03;15.33;;;8.73;;
5959;SDS011;3006;50.956;7.002;2022-12-18T05:01:32;16.43;;;8.73;;
5959;SDS011;3006;50.956;7.002;2022-12-18T05:04:02;15.20;;;9.07;;
5959;SDS011;3006;50.956;7.002;2022-12-18T05:06:30;16.47;;;9.27;;
5959;SDS011;3006;50.956;7.002;2022-12-18T05:08:58;14.67;;;8.87;;
5959;SDS011;3006;50.956;7.002;2022-12-18T05:11:26;11.47;;;8.17;;
5959;SDS011;3006;50.956;7.002;2022-12-18T05:13:54;15.03;;;8.70;;
5959;SDS011;3006;50.956;7.002;2022-12-18T05:16:22;13.83;;;7.80;;
5959;SDS011;3006;50.956;7.002;2022-12-18T05:18:52;12.40;;;7.90;;
5959;SDS011;3006;50.956;7.002;2022-12-18T05:21:20;15.70;;;8.77;;
5959;SDS011;3006;50.956;7.002;2022-12-18T05:23:48;16.47;;;9.07;;
5959;SDS011;3006;50.956;7.002;2022-12-18T05:26:16;13.70;;;8.00;;
5959;SDS011;3006;50.956;7.002;2022-12-18T05:28:45;15.73;;;8.90;;
5959;SDS011;3006;50.956;7.002;2022-12-18T05:31:13;14.83;;;8.50;;
5959;SDS011;3006;50.956;7.002;2022-12-18T05:33:41;14.27;;;7.80;;
5959;SDS011;3006;50.956;7.002;2022-12-18T05:36:11;15.73;;;8.60;;
5959;SDS011;3006;50.956;7.002;2022-12-18T05:38:39;13.17;;;8.03;;
5959;SDS011;3006;50.956;7.002;2022-12-18T05:41:08;13.73;;;7.27;;
5959;SDS011;3006;50.956;7.002;2022-12-18T05:43:37;15.50;;;8.27;;
5959;SDS011;3006;50.956;7.002;2022-12-18T05:46:07;12.93;;;8.03;;
5959;SDS011;3006;50.956;7.002;2022-12-18T05:48:39;14.70;;;8.63;;
5959;SDS011;3006;50.956;7.002;2022-12-18T05:51:08;12.20;;;7.70;;
5959;SDS011;3006;50.956;7.002;2022-12-18T05:53:38;13.07;;;8.10;;
5959;SDS011;3006;50.956;7.002;2022-12-18T05:56:08;12.60;;;8.40;;
5959;SDS011;3006;50.956;7.002;2022-12-18T05:58:37;12.60;;;8.23;;
5959;SDS011;3006;50.956;7.002;2022-12-18T06:01:06;15.27;;;8.10;;
5959;SDS011;3006;50.956;7.002;2022-12-18T06:03:36;13.00;;;7.40;;
5959;SDS011;3006;50.956;7.002;2022-12-18T06:06:13;13.93;;;8.80;;
5959;SDS011;3006;50.956;7.002;2022-12-18T06:08:42;15.03;;;8.77;;
5959;SDS011;3006;50.956;7.002;2022-12-18T06:11:12;13.00;;;7.87;;
5959;SDS011;3006;50.956;7.002;2022-12-18T06:13:40;13.23;;;8.17;;
5959;SDS011;3006;50.956;7.002;2022-12-18T06:16:08;12.60;;;8.07;;
5959;SDS011;3006;50.956;7.002;2022-12-18T06:18:36;15.33;;;8.87;;
5959;SDS011;3006;50.956;7.002;2022-12-18T06:21:05;12.77;;;8.33;;
5959;SDS011;3006;50.956;7.002;2022-12-18T06:23:34;12.10;;;8.37;;
5959;SDS011;3006;50.956;7.002;2022-12-18T06:26:03;13.00;;;8.37;;
5959;SDS011;3006;50.956;7.002;2022-12-18T06:28:32;13.30;;;9.43;;
5959;SDS011;3006;50.956;7.002;2022-12-18T06:31:02;14.00;;;8.23;;
5959;SDS011;3006;50.956;7.002;2022-12-18T06:33:31;12.57;;;9.13;;
5959;SDS011;3006;50.956;7.002;2022-12-18T06:35:59;17.40;;;9.20;;
5959;SDS011;3006;50.956;7.002;2022-12-18T06:38:28;17.30;;;9.30;;
5959;SDS011;3006;50.956;7.002;2022-12-18T06:40:58;15.17;;;8.90;;
5959;SDS011;3006;50.956;7.002;2022-12-18T06:43:26;16.53;;;9.17;;
5959;SDS011;3006;50.956;7.002;2022-12-18T06:45:57;19.17;;;9.53;;
5959;SDS011;3006;50.956;7.002;2022-12-18T06:48:26;24.00;;;9.87;;
5959;SDS011;3006;50.956;7.002;2022-12-18T06:50:55;14.83;;;10.57;;
5959;SDS011;3006;50.956;7.002;2022-12-18T06:53:23;14.80;;;10.13;;
5959;SDS011;3006;50.956;7.002;2022-12-18T06:55:51;16.00;;;10.23;;
5959;SDS011;3006;50.956;7.002;2022-12-18T06:58:21;14.93;;;10.43;;
5959;SDS011;3006;50.956;7.002;2022-12-18T07:00:49;17.80;;;8.87;;
5959;SDS011;3006;50.956;7.002;2022-12-18T07:03:18;12.47;;;9.43;;
5959;SDS011;3006;50.956;7.002;2022-12-18T07:05:46;12.47;;;8.17;;
5959;SDS011;3006;50.956;7.002;2022-12-18T07:08:14;16.43;;;9.83;;
5959;SDS011;3006;50.956;7.002;2022-12-18T07:10:42;16.13;;;11.60;;
5959;SDS011;3006;50.956;7.002;2022-12-18T07:13:15;15.20;;;10.43;;
5959;SDS011;3006;50.956;7.002;2022-12-18T07:15:44;17.27;;;11.03;;
5959;SDS011;3006;50.956;7.002;2022-12-18T07:18:12;14.60;;;9.90;;
5959;SDS011;3006;50.956;7.002;2022-12-18T07:20:40;17.93;;;10.73;;
5959;SDS011;3006;50.956;7.002;2022-12-18T07:23:08;16.13;;;9.97;;
5959;SDS011;3006;50.956;7.002;2022-12-18T07:25:36;19.20;;;10.10;;
5959;SDS011;3006;50.956;7.002;2022-12-18T07:28:05;16.30;;;9.97;;
5959;SDS011;3006;50.956;7.002;2022-12-18T07:30:40;14.47;;;9.00;;
5959;SDS011;3006;50.956;7.002;2022-12-18T07:33:10;14.90;;;9.20;;
5959;SDS011;3006;50.956;7.002;2022-12-18T07:35:38;17.03;;;9.80;;
5959;SDS011;3006;50.956;7.002;2022-12-18T07:38:06;16.80;;;11.13;;
5959;SDS011;3006;50.956;7.002;2022-12-18T07:40:34;16.00;;;9.40;;
5959;SDS011;3006;50.956;7.002;2022-12-18T07:43:02;15.23;;;9.40;;
5959;SDS011;3006;50.956;7.002;2022-12-18T07:45:30;17.93;;;9.90;;
5959;SDS011;3006;50.956;7.002;2022-12-18T07:47:58;17.77;;;9.60;;
5959;SDS011;3006;50.956;7.002;2022-12-18T07:50:27;16.30;;;9.90;;
5959;SDS011;3006;50.956;7.002;2022-12-18T07:52:55;15.30;;;9.23;;
5959;SDS011;3006;50.956;7.002;2022-12-18T07:55:24;14.87;;;10.00;;
5959;SDS011;3006;50.956;7.002;2022-12-18T07:57:52;15.33;;;9.37;;
5959;SDS011;3006;50.956;7.002;2022-12-18T08:00:26;21.07;;;11.30;;
5959;SDS011;3006;50.956;7.002;2022-12-18T08:02:54;20.70;;;9.40;;
5959;SDS011;3006;50.956;7.002;2022-12-18T08:05:22;15.83;;;10.17;;
5959;SDS011;3006;50.956;7.002;2022-12-18T08:07:52;13.90;;;9.70;;
5959;SDS011;3006;50.956;7.002;2022-12-18T08:10:20;17.30;;;10.20;;
5959;SDS011;3006;50.956;7.002;2022-12-18T08:12:49;18.50;;;10.20;;
5959;SDS011;3006;50.956;7.002;2022-12-18T08:15:17;20.23;;;10.10;;
5959;SDS011;3006;50.956;7.002;2022-12-18T08:17:45;17.20;;;10.03;;
5959;SDS011;3006;50.956;7.002;2022-12-18T08:20:13;15.43;;;8.30;;
5959;SDS011;3006;50.956;7.002;2022-12-18T08:22:41;17.30;;;9.97;;
5959;SDS011;3006;50.956;7.002;2022-12-18T08:25:10;18.17;;;10.00;;
5959;SDS011;3006;50.956;7.002;2022-12-18T08:27:38;14.50;;;9.67;;
5959;SDS011;3006;50.956;7.002;2022-12-18T08:30:07;16.07;;;10.80;;
5959;SDS011;3006;50.956;7.002;2022-12-18T08:32:36;15.37;;;9.67;;
5959;SDS011;3006;50.956;7.002;2022-12-18T08:35:04;13.23;;;8.83;;
5959;SDS011;3006;50.956;7.002;2022-12-18T08:37:34;17.20;;;9.30;;
5959;SDS011;3006;50.956;7.002;2022-12-18T08:40:02;14.03;;;9.27;;
5959;SDS011;3006;50.956;7.002;2022-12-18T08:42:32;13.90;;;9.10;;
5959;SDS011;3006;50.956;7.002;2022-12-18T08:45:17;13.87;;;8.90;;
5959;SDS011;3006;50.956;7.002;2022-12-18T08:47:45;15.60;;;9.77;;
5959;SDS011;3006;50.956;7.002;2022-12-18T08:50:13;17.90;;;11.00;;
5959;SDS011;3006;50.956;7.002;2022-12-18T08:52:42;15.33;;;9.60;;
5959;SDS011;3006;50.956;7.002;2022-12-18T08:55:12;17.67;;;10.13;;
5959;SDS011;3006;50.956;7.002;2022-12-18T08:57:41;14.63;;;9.63;;
5959;SDS011;3006;50.956;7.002;2022-12-18T09:00:10;13.80;;;9.70;;
5959;SDS011;3006;50.956;7.002;2022-12-18T09:02:40;13.33;;;8.60;;
5959;SDS011;3006;50.956;7.002;2022-12-18T09:05:08;13.40;;;9.20;;
5959;SDS011;3006;50.956;7.002;2022-12-18T09:07:36;15.20;;;9.23;;
5959;SDS011;3006;50.956;7.002;2022-12-18T09:10:05;15.63;;;8.83;;
5959;SDS011;3006;50.956;7.002;2022-12-18T09:12:33;14.40;;;8.80;;
5959;SDS011;3006;50.956;7.002;2022-12-18T09:15:03;13.40;;;8.57;;
5959;SDS011;3006;50.956;7.002;2022-12-18T09:17:32;16.23;;;9.70;;
5959;SDS011;3006;50.956;7.002;2022-12-18T09:20:00;17.13;;;9.90;;
5959;SDS011;3006;50.956;7.002;2022-12-18T09:22:28;15.17;;;9.20;;
5959;SDS011;3006;50.956;7.002;2022-12-18T09:24:56;15.27;;;9.73;;
5959;SDS011;3006;50.956;7.002;2022-12-18T09:27:24;13.87;;;9.47;;
5959;SDS011;3006;50.956;7.002;2022-12-18T09:29:52;15.90;;;10.40;;
5959;SDS011;3006;50.956;7.002;2022-12-18T09:32:21;13.37;;;9.10;;
5959;SDS011;3006;50.956;7.002;2022-12-18T09:34:49;18.57;;;10.00;;
5959;SDS011;3006;50.956;7.002;2022-12-18T09:37:17;16.93;;;9.60;;
5959;SDS011;3006;50.956;7.002;2022-12-18T09:39:45;15.10;;;9.77;;
5959;SDS011;3006;50.956;7.002;2022-12-18T09:42:14;16.80;;;9.23;;
5959;SDS011;3006;50.956;7.002;2022-12-18T09:44:48;17.53;;;9.70;;
5959;SDS011;3006;50.956;7.002;2022-12-18T09:47:18;17.20;;;9.83;;
5959;SDS011;3006;50.956;7.002;2022-12-18T09:49:51;21.30;;;8.47;;
5959;SDS011;3006;50.956;7.002;2022-12-18T09:52:23;17.43;;;10.57;;
5959;SDS011;3006;50.956;7.002;2022-12-18T09:54:56;14.73;;;9.90;;
5959;SDS011;3006;50.956;7.002;2022-12-18T09:57:28;17.50;;;10.07;;
5959;SDS011;3006;50.956;7.002;2022-12-18T10:00:02;21.60;;;10.90;;
5959;SDS011;3006;50.956;7.002;2022-12-18T10:02:38;13.80;;;9.50;;
5959;SDS011;3006;50.956;7.002;2022-12-18T10:05:06;17.57;;;11.10;;
5959;SDS011;3006;50.956;7.002;2022-12-18T10:07:43;19.10;;;10.10;;
5959;SDS011;3006;50.956;7.002;2022-12-18T10:10:23;16.43;;;9.27;;
5959;SDS011;3006;50.956;7.002;2022-12-18T10:12:57;18.27;;;11.17;;
5959;SDS011;3006;50.956;7.002;2022-12-18T10:15:32;17.57;;;10.70;;
5959;SDS011;3006;50.956;7.002;2022-12-18T10:18:07;17.67;;;10.30;;
5959;SDS011;3006;50.956;7.002;2022-12-18T10:20:48;17.20;;;11.10;;
5959;SDS011;3006;50.956;7.002;2022-12-18T10:23:19;19.40;;;11.30;;
5959;SDS011;3006;50.956;7.002;2022-12-18T10:25:53;15.97;;;10.50;;
5959;SDS011;3006;50.956;7.002;2022-12-18T10:28:25;15.67;;;10.23;;
5959;SDS011;3006;50.956;7.002;2022-12-18T10:30:54;14.90;;;10.10;;
5959;SDS011;3006;50.956;7.002;2022-12-18T10:33:27;16.10;;;10.10;;
5959;SDS011;3006;50.956;7.002;2022-12-18T10:35:56;17.07;;;11.20;;
5959;SDS011;3006;50.956;7.002;2022-12-18T10:38:24;16.80;;;11.50;;
5959;SDS011;3006;50.956;7.002;2022-12-18T10:40:54;15.80;;;10.00;;
5959;SDS011;3006;50.956;7.002;2022-12-18T10:43:24;15.30;;;10.27;;
5959;SDS011;3006;50.956;7.002;2022-12-18T10:48:51;15.47;;;10.83;;
5959;SDS011;3006;50.956;7.002;2022-12-18T10:51:22;15.60;;;10.10;;
5959;SDS011;3006;50.956;7.002;2022-12-18T10:53:53;16.53;;;10.57;;
5959;SDS011;3006;50.956;7.002;2022-12-18T10:56:23;22.57;;;11.60;;
5959;SDS011;3006;50.956;7.002;2022-12-18T10:58:58;15.63;;;8.80;;
5959;SDS011;3006;50.956;7.002;2022-12-18T11:01:31;15.93;;;9.90;;
5959;SDS011;3006;50.956;7.002;2022-12-18T11:04:17;17.23;;;11.27;;
5959;SDS011;3006;50.956;7.002;2022-12-18T11:06:54;19.43;;;11.03;;
5959;SDS011;3006;50.956;7.002;2022-12-18T11:09:25;15.87;;;10.90;;
5959;SDS011;3006;50.956;7.002;2022-12-18T11:11:56;19.77;;;10.87;;
5959;SDS011;3006;50.956;7.002;2022-12-18T11:14:26;13.27;;;9.80;;
5959;SDS011;3006;50.956;7.002;2022-12-18T11:16:56;16.13;;;9.33;;
5959;SDS011;3006;50.956;7.002;2022-12-18T11:19:52;19.07;;;11.40;;
5959;SDS011;3006;50.956;7.002;2022-12-18T11:22:24;19.27;;;11.60;;
5959;SDS011;3006;50.956;7.002;2022-12-18T11:24:55;19.50;;;11.10;;
5959;SDS011;3006;50.956;7.002;2022-12-18T11:27:49;20.93;;;10.70;;
5959;SDS011;3006;50.956;7.002;2022-12-18T11:30:24;18.50;;;11.40;;
5959;SDS011;3006;50.956;7.002;2022-12-18T11:32:59;18.80;;;11.03;;
5959;SDS011;3006;50.956;7.002;2022-12-18T11:35:37;21.30;;;12.47;;
5959;SDS011;3006;50.956;7.002;2022-12-18T11:38:17;23.40;;;12.30;;
5959;SDS011;3006;50.956;7.002;2022-12-18T11:40:50;17.70;;;11.20;;
5959;SDS011;3006;50.956;7.002;2022-12-18T11:43:25;21.00;;;13.17;;
5959;SDS011;3006;50.956;7.002;2022-12-18T11:45:56;17.37;;;11.77;;
5959;SDS011;3006;50.956;7.002;2022-12-18T11:48:30;20.87;;;12.77;;
5959;SDS011;3006;50.956;7.002;2022-12-18T11:51:08;18.90;;;12.47;;
5959;SDS011;3006;50.956;7.002;2022-12-18T11:53:41;22.77;;;12.17;;
5959;SDS011;3006;50.956;7.002;2022-12-18T11:56:15;19.50;;;11.60;;
5959;SDS011;3006;50.956;7.002;2022-12-18T11:58:57;18.83;;;12.33;;
5959;SDS011;3006;50.956;7.002;2022-12-18T12:01:36;19.97;;;11.27;;
5959;SDS011;3006;50.956;7.002;2022-12-18T12:04:23;16.23;;;11.17;;
5959;SDS011;3006;50.956;7.002;2022-12-18T12:07:23;23.13;;;11.50;;
5959;SDS011;3006;50.956;7.002;2022-12-18T12:10:05;20.00;;;11.80;;
5959;SDS011;3006;50.956;7.002;2022-12-18T12:12:50;17.27;;;10.40;;
5959;SDS011;3006;50.956;7.002;2022-12-18T12:15:29;23.13;;;13.00;;
5959;SDS011;3006;50.956;7.002;2022-12-18T12:18:08;22.47;;;13.00;;
5959;SDS011;3006;50.956;7.002;2022-12-18T12:20:46;23.40;;;12.47;;
5959;SDS011;3006;50.956;7.002;2022-12-18T12:23:22;23.37;;;12.73;;
5959;SDS011;3006;50.956;7.002;2022-12-18T12:26:01;25.00;;;12.53;;
5959;SDS011;3006;50.956;7.002;2022-12-18T12:28:37;22.27;;;12.90;;
5959;SDS011;3006;50.956;7.002;2022-12-18T12:31:22;20.03;;;12.30;;
5959;SDS011;3006;50.956;7.002;2022-12-18T12:34:01;22.67;;;13.53;;
5959;SDS011;3006;50.956;7.002;2022-12-18T12:36:40;18.77;;;12.23;;
5959;SDS011;3006;50.956;7.002;2022-12-18T12:39:20;27.00;;;14.70;;
5959;SDS011;3006;50.956;7.002;2022-12-18T12:41:54;27.77;;;13.77;;
5959;SDS011;3006;50.956;7.002;2022-12-18T12:44:41;19.83;;;11.60;;
5959;SDS011;3006;50.956;7.002;2022-12-18T12:47:20;25.00;;;13.27;;
5959;SDS011;3006;50.956;7.002;2022-12-18T12:49:52;22.43;;;13.37;;
5959;SDS011;3006;50.956;7.002;2022-12-18T12:52:24;26.13;;;12.53;;
5959;SDS011;3006;50.956;7.002;2022-12-18T12:54:59;22.37;;;12.20;;
5959;SDS011;3006;50.956;7.002;2022-12-18T12:57:30;27.90;;;14.27;;
5959;SDS011;3006;50.956;7.002;2022-12-18T13:00:05;21.67;;;12.57;;
5959;SDS011;3006;50.956;7.002;2022-12-18T13:02:39;21.10;;;12.80;;
5959;SDS011;3006;50.956;7.002;2022-12-18T13:05:16;21.80;;;12.50;;
5959;SDS011;3006;50.956;7.002;2022-12-18T13:07:50;21.00;;;12.57;;
5959;SDS011;3006;50.956;7.002;2022-12-18T13:10:25;23.80;;;13.30;;
5959;SDS011;3006;50.956;7.002;2022-12-18T13:12:59;27.23;;;14.23;;
5959;SDS011;3006;50.956;7.002;2022-12-18T13:15:33;21.27;;;13.27;;
5959;SDS011;3006;50.956;7.002;2022-12-18T13:20:50;20.93;;;13.50;;
5959;SDS011;3006;50.956;7.002;2022-12-18T13:23:31;26.27;;;15.40;;
5959;SDS011;3006;50.956;7.002;2022-12-18T13:29:03;25.03;;;15.20;;
5959;SDS011;3006;50.956;7.002;2022-12-18T13:34:28;23.40;;;14.60;;
5959;SDS011;3006;50.956;7.002;2022-12-18T13:40:00;27.03;;;14.77;;
5959;SDS011;3006;50.956;7.002;2022-12-18T13:42:39;21.70;;;13.07;;
5959;SDS011;3006;50.956;7.002;2022-12-18T13:45:43;24.10;;;13.83;;
5959;SDS011;3006;50.956;7.002;2022-12-18T13:48:17;25.17;;;14.93;;
5959;SDS011;3006;50.956;7.002;2022-12-18T13:50:55;29.20;;;15.30;;
5959;SDS011;3006;50.956;7.002;2022-12-18T13:53:27;24.73;;;14.87;;
5959;SDS011;3006;50.956;7.002;2022-12-18T13:55:57;20.73;;;14.10;;
5959;SDS011;3006;50.956;7.002;2022-12-18T13:58:26;22.57;;;14.10;;
5959;SDS011;3006;50.956;7.002;2022-12-18T14:00:55;29.40;;;14.20;;
5959;SDS011;3006;50.956;7.002;2022-12-18T14:03:26;27.77;;;14.53;;
5959;SDS011;3006;50.956;7.002;2022-12-18T14:06:02;23.20;;;13.90;;
5959;SDS011;3006;50.956;7.002;2022-12-18T14:08:35;23.53;;;15.50;;
5959;SDS011;3006;50.956;7.002;2022-12-18T14:11:07;22.73;;;14.27;;
5959;SDS011;3006;50.956;7.002;2022-12-18T14:13:48;23.80;;;14.97;;
5959;SDS011;3006;50.956;7.002;2022-12-18T14:16:18;24.47;;;14.90;;
5959;SDS011;3006;50.956;7.002;2022-12-18T14:18:46;26.70;;;14.73;;
5959;SDS011;3006;50.956;7.002;2022-12-18T14:21:20;28.20;;;16.60;;
5959;SDS011;3006;50.956;7.002;2022-12-18T14:24:02;27.17;;;15.83;;
5959;SDS011;3006;50.956;7.002;2022-12-18T14:26:32;26.50;;;15.77;;
5959;SDS011;3006;50.956;7.002;2022-12-18T14:29:01;24.77;;;14.53;;
5959;SDS011;3006;50.956;7.002;2022-12-18T14:32:03;23.53;;;15.70;;
5959;SDS011;3006;50.956;7.002;2022-12-18T14:34:37;24.67;;;14.30;;
5959;SDS011;3006;50.956;7.002;2022-12-18T14:37:05;26.03;;;14.70;;
5959;SDS011;3006;50.956;7.002;2022-12-18T14:39:36;22.93;;;14.90;;
5959;SDS011;3006;50.956;7.002;2022-12-18T14:42:04;25.40;;;15.20;;
5959;SDS011;3006;50.956;7.002;2022-12-18T14:44:32;26.90;;;15.23;;
5959;SDS011;3006;50.956;7.002;2022-12-18T14:47:22;25.23;;;15.17;;
5959;SDS011;3006;50.956;7.002;2022-12-18T14:49:50;26.27;;;15.63;;
5959;SDS011;3006;50.956;7.002;2022-12-18T14:52:19;28.83;;;16.47;;
5959;SDS011;3006;50.956;7.002;2022-12-18T14:54:53;31.63;;;17.20;;
5959;SDS011;3006;50.956;7.002;2022-12-18T14:57:22;27.57;;;14.83;;
5959;SDS011;3006;50.956;7.002;2022-12-18T14:59:52;32.20;;;17.37;;
5959;SDS011;3006;50.956;7.002;2022-12-18T15:02:22;26.53;;;15.00;;
5959;SDS011;3006;50.956;7.002;2022-12-18T15:04:59;35.60;;;17.00;;
5959;SDS011;3006;50.956;7.002;2022-12-18T15:07:39;28.73;;;16.60;;
5959;SDS011;3006;50.956;7.002;2022-12-18T15:10:10;23.30;;;14.23;;
5959;SDS011;3006;50.956;7.002;2022-12-18T15:12:41;27.70;;;16.30;;
5959;SDS011;3006;50.956;7.002;2022-12-18T15:18:16;27.00;;;15.53;;
5959;SDS011;3006;50.956;7.002;2022-12-18T15:20:46;27.07;;;14.83;;
5959;SDS011;3006;50.956;7.002;2022-12-18T15:23:17;28.40;;;16.00;;
5959;SDS011;3006;50.956;7.002;2022-12-18T15:25:48;26.50;;;16.70;;
5959;SDS011;3006;50.956;7.002;2022-12-18T15:28:22;26.70;;;16.27;;
5959;SDS011;3006;50.956;7.002;2022-12-18T15:31:03;29.03;;;17.50;;
5959;SDS011;3006;50.956;7.002;2022-12-18T15:33:35;26.57;;;16.40;;
5959;SDS011;3006;50.956;7.002;2022-12-18T15:36:07;28.23;;;17.80;;
5959;SDS011;3006;50.956;7.002;2022-12-18T15:38:36;31.93;;;16.97;;
5959;SDS011;3006;50.956;7.002;2022-12-18T15:41:04;29.30;;;17.93;;
5959;SDS011;3006;50.956;7.002;2022-12-18T15:43:39;27.10;;;16.23;;